Detall de PIREP

Printer-friendly versionPDF version

[2012/12/05 09:04:00]
Flight IATA:CT1005
Pilot Number:011
Company ICAO:CAT
Aircraft Type:F28/A
PAX:85
Departing Airport: LZKZ
Destination Airport: LHSM
Alternate Airport:LHBP
Online: VATSIM
Route:KEKED Q561 TPS M986 SOGMO
Flight Level:F220
No Slew and time accel
No pause
Crash detect
Detect pilot in Cockpit between each 30 and 45 minutes
09:04 Zero fuel Weight: 59156 Lbs, Fuel Weight: 9235 Lbs
09:04 VATSIM:LZKZ 050830Z 04001KT 1300 R01/1600N -SN BR SCT005 OVC020 M01/M02 Q1000 RESN NOSIG
09:04 VATSIM:LHSM 050815Z 30004KT CAVOK 01/00 Q1003
09:16 Parking Brakes off
09:22 Take-off
09:22 Take off Weight: 67871 Lbs
09:22 Wind: 288º @ 000 Knots Heading: 193º
09:22 POS N48º 39´ 37´´ E021º 14´ 24´´
09:22 Gear Up: 148 Knots
09:22 Flaps:3 at 148 Knots
09:23 Flaps:2 at 189 Knots
09:23 Flaps:1 at 200 Knots
09:23 Flaps:0 at 204 Knots
09:33 TOC
09:33 Fuel Weight: 7273 Lb
09:37 Wind:309º@006 Knots Heading: 221º Ground Speed: 334 Knots Altitude 21620 ft
09:48 TOD
09:48 Fuel Weight: 6072 Lb
10:02 Flaps:1 at 232 Knots
10:03 Flaps:2 at 207 Knots
10:04 Flaps:3 at 184 Knots
10:04 Gear Down: 180 Knots
10:04 Flaps:4 at 164 Knots
10:07 Flaps:5 at 149 Knots
10:09 TouchDown:Rate -182 ft/min Speed: 112 Knots
10:09 VATSIM:LHSM 050945Z 26005KT CAVOK 02/01 Q1003 NOSIG
10:09 Land
10:09 Wind:258º@003 Knots
10:09 Heading: 166º
10:09 Flight Duration: 00:47
10:09 Landing Weight: 64147 Lbs
10:09 POS N46º 41´ 07´´ E017º 09´ 33´´
10:13 Parking brakes on
10:13 Block to Block Duration: 00:57
10:13 Final Fuel: 4836 Lbls
10:13 Spent Fuel: 4398 Lbls
10:13 Flight Length: 84 NM
10:13 TOD Land Length: 19 NM

Exportar CSV

Powered by Drupal - Modified by Danger4k